Pagina principale
METAR-TAF:

METAR-TAF

Aeroporti :

Monte Argentario, Italia

latitudine: 42-23N, longitudine: 011-10E, altezza: 630 m

Osservazione

Il bollettino è stato emesso 1 ora e 10 minuti fa, alle 10:55 UTC
Vento 16 kt da sud/sud-est
Temperature 13°C
Umidità 62%
Pressione 1014 hPa
Visibilità 10 km o più
Poco nuvoloso ad un'altezza di 500 ft

METAR: LIQO 191055Z 15016KT 9999 FEW005 13/06 Q1014 RMK SCT SCT160 VAL NIL NC VIS MIN 9999

Ora: 13:05 (12:05 UTC)


TAF: mancante

Osservazioni e previsioni meteorologiche di più di 4000 aeroporti (messaggi METAR e TAF).

Le stazioni disponibili sono rappresentate dai dischi gialli e rossi sulla carta.

Puntare il mouse per vedere il nome della stazione.

Clicca sopra per visualizzare le osservazioni e previsioni meteorologiche.

Per cambiare la mappa : fare clic sui pulsanti verdi con una croce nera per ingrandire, il pulsante verde con un trattino per diminuire, o sulla freccia verde per le mappe adiacenti.


METAR-TAF: